Time;durP1;ratioP1;P1;durP2;ratioP2;P2;SDS_P1;SDS_P2;PMS_P1;PMS_P2;Temp;Humidity;BMP_temperature;BMP_pressure;BME280_temperature;BME280_humidity;BME280_pressure;Samples;Min_cycle;Max_cycle;Signal;HPM_P1;HPM_P2
2022/07/04 00:00:43;;;;;;;;;;;;;;;12.73;45.85;95874.03;5042314;28;19976;-71
2022/07/04 00:03:08;;;;;;;;;;;;;;;12.77;45.97;95877.97;5041933;28;19989;-71
2022/07/04 00:05:33;;;;;;;;;;;;;;;12.67;46.09;95867.59;5042372;28;19969;-70
2022/07/04 00:07:59;;;;;;;;;;;;;;;12.68;46.00;95866.56;5042274;28;20599;-67
2022/07/04 00:10:24;;;;;;;;;;;;;;;12.72;45.87;95865.19;5041875;28;19993;-66
2022/07/04 00:12:50;;;;;;;;;;;;;;;12.51;46.72;95873.97;5040863;28;20030;-68
2022/07/04 00:15:15;;;;;;;;;;;;;;;12.49;46.72;95870.63;5041902;28;20073;-69
2022/07/04 00:17:40;;;;;;;;;;;;;;;12.60;46.48;95870.19;5042622;28;20238;-67
2022/07/04 00:20:06;;;;;;;;;;;;;;;12.40;47.09;95865.38;5040365;28;20036;-69
2022/07/04 00:22:31;;;;;;;;;;;;;;;12.61;46.65;95858.47;5041716;28;19989;-69
2022/07/04 00:24:57;;;;;;;;;;;;;;;12.63;46.29;95867.13;5041406;28;19968;-70
2022/07/04 00:27:22;;;;;;;;;;;;;;;12.88;45.79;95864.16;5041907;28;20050;-66
2022/07/04 00:29:47;;;;;;;;;;;;;;;13.09;45.01;95859.09;5046021;28;20086;-71
2022/07/04 00:32:12;;;;;;;;;;;;;;;13.39;43.90;95857.16;5043644;28;20017;-69
2022/07/04 00:34:38;;;;;;;;;;;;;;;13.45;44.10;95860.91;5044310;28;19985;-71
2022/07/04 00:37:03;;;;;;;;;;;;;;;13.57;43.54;95855.88;5045261;28;20001;-69
2022/07/04 00:39:28;;;;;;;;;;;;;;;13.59;43.35;95850.34;5044898;28;19993;-70
2022/07/04 00:41:53;;;;;;;;;;;;;;;13.62;43.05;95855.28;5045165;28;20428;-68
2022/07/04 00:44:19;;;;;;;;;;;;;;;13.71;42.78;95864.84;5045406;28;19962;-68
2022/07/04 00:46:45;;;;;;;;;;;;;;;13.68;42.76;95858.06;5044894;28;20019;-71
2022/07/04 00:49:10;;;;;;;;;;;;;;;13.65;42.70;95855.75;5045955;28;20068;-70
2022/07/04 00:51:36;;;;;;;;;;;;;;;13.65;42.79;95861.09;5045412;28;20452;-68
2022/07/04 00:54:01;;;;;;;;;;;;;;;13.64;42.54;95845.25;5045623;28;19969;-69
2022/07/04 00:56:27;;;;;;;;;;;;;;;13.73;42.56;95853.97;5045101;28;19965;-70
2022/07/04 00:58:52;;;;;;;;;;;;;;;13.65;42.24;95847.72;5045424;28;20016;-71
2022/07/04 01:01:18;;;;;;;;;;;;;;;13.52;42.42;95845.75;5046003;28;19973;-72
2022/07/04 01:03:43;;;;;;;;;;;;;;;13.50;42.10;95841.63;5045828;28;19993;-69
2022/07/04 01:06:09;;;;;;;;;;;;;;;13.44;42.19;95846.69;5044229;28;19992;-71
2022/07/04 01:08:37;;;;;;;;;;;;;;;13.33;42.67;95851.72;5044207;28;19984;-71
2022/07/04 01:11:02;;;;;;;;;;;;;;;13.25;43.36;95856.19;5044215;28;19993;-70
2022/07/04 01:13:27;;;;;;;;;;;;;;;13.34;42.40;95854.22;5045432;28;20441;-70
2022/07/04 01:15:53;;;;;;;;;;;;;;;13.40;42.76;95868.69;5045319;28;20449;-71
2022/07/04 01:18:18;;;;;;;;;;;;;;;13.48;43.05;95865.03;5045420;28;20459;-70
2022/07/04 01:20:43;;;;;;;;;;;;;;;13.42;43.45;95863.94;5045168;28;20265;-71
2022/07/04 01:23:09;;;;;;;;;;;;;;;13.30;43.25;95859.09;5044909;28;20003;-71
2022/07/04 01:25:34;;;;;;;;;;;;;;;13.16;43.02;95863.47;5045921;28;20511;-72
2022/07/04 01:28:00;;;;;;;;;;;;;;;13.11;42.42;95860.56;5043265;28;20024;-71
2022/07/04 01:30:25;;;;;;;;;;;;;;;13.10;42.80;95866.91;5044670;28;19985;-72
2022/07/04 01:32:50;;;;;;;;;;;;;;;13.03;42.90;95864.16;5045240;28;20049;-70
2022/07/04 01:35:16;;;;;;;;;;;;;;;12.99;42.71;95873.56;5044835;28;20004;-71
2022/07/04 01:37:41;;;;;;;;;;;;;;;12.92;43.08;95865.44;5045230;28;20001;-71
2022/07/04 01:40:06;;;;;;;;;;;;;;;12.87;42.84;95862.50;5044412;28;20000;-69
2022/07/04 01:42:32;;;;;;;;;;;;;;;12.81;42.75;95865.91;5045124;28;20018;-72
2022/07/04 01:44:57;;;;;;;;;;;;;;;12.89;42.32;95873.81;5044934;28;20356;-71
2022/07/04 01:47:22;;;;;;;;;;;;;;;12.85;42.44;95877.06;5044131;28;19997;-70
2022/07/04 01:49:47;;;;;;;;;;;;;;;12.79;42.95;95875.97;5043764;28;20184;-72
2022/07/04 01:52:15;;;;;;;;;;;;;;;12.74;42.52;95875.69;5044612;28;19989;-72
2022/07/04 01:54:41;;;;;;;;;;;;;;;12.69;42.35;95881.59;5044482;28;19993;-70
2022/07/04 01:57:06;;;;;;;;;;;;;;;12.64;42.28;95879.47;5042855;28;20372;-73
2022/07/04 02:02:15;;;;;;;;;;;;;;;12.45;42.29;95893.38;5044327;28;20320;-71
2022/07/04 02:04:40;;;;;;;;;;;;;;;12.38;42.59;95890.63;5044636;28;19969;-72
2022/07/04 02:07:05;;;;;;;;;;;;;;;12.34;42.88;95895.47;5044680;28;20001;-73
2022/07/04 02:09:31;;;;;;;;;;;;;;;12.23;42.84;95903.91;5043707;28;20004;-72
2022/07/04 02:14:41;;;;;;;;;;;;;;;12.13;42.79;95905.03;5042990;28;20000;-72
2022/07/04 02:17:06;;;;;;;;;;;;;;;12.10;43.08;95900.03;5044439;28;20019;-71
2022/07/04 02:19:32;;;;;;;;;;;;;;;12.06;42.59;95901.41;5042886;28;19985;-72
2022/07/04 02:21:57;;;;;;;;;;;;;;;12.01;42.31;95903.78;5043346;28;20051;-72
2022/07/04 02:24:22;;;;;;;;;;;;;;;11.92;43.43;95903.00;5043675;28;20034;-70
2022/07/04 02:26:48;;;;;;;;;;;;;;;11.90;43.64;95910.38;5043631;28;20127;-70
2022/07/04 02:29:13;;;;;;;;;;;;;;;11.83;43.26;95906.75;5042642;28;20017;-65
2022/07/04 02:31:38;;;;;;;;;;;;;;;11.79;43.06;95908.94;5043892;28;19985;-72
2022/07/04 02:34:03;;;;;;;;;;;;;;;11.72;43.63;95911.50;5043638;28;19973;-70
2022/07/04 02:36:28;;;;;;;;;;;;;;;11.71;43.49;95920.50;5044564;28;19969;-70
2022/07/04 02:38:54;;;;;;;;;;;;;;;11.66;43.71;95917.53;5043095;28;20481;-72
2022/07/04 02:41:19;;;;;;;;;;;;;;;11.53;44.80;95912.81;5044055;28;20027;-72
2022/07/04 02:43:44;;;;;;;;;;;;;;;11.58;44.07;95917.59;5042557;28;19992;-71
2022/07/04 02:46:09;;;;;;;;;;;;;;;11.49;44.54;95908.84;5043049;28;19973;-71
2022/07/04 02:48:35;;;;;;;;;;;;;;;11.44;44.68;95913.84;5043810;28;19997;-74
2022/07/04 02:51:00;;;;;;;;;;;;;;;11.46;43.87;95911.84;5042732;28;20080;-72
2022/07/04 02:53:25;;;;;;;;;;;;;;;11.46;45.49;95918.00;5042572;28;19969;-72
2022/07/04 02:55:50;;;;;;;;;;;;;;;11.44;44.49;95913.84;5043420;28;20001;-71
2022/07/04 02:58:16;;;;;;;;;;;;;;;11.43;44.84;95917.53;5041081;28;19997;-72
2022/07/04 03:00:41;;;;;;;;;;;;;;;11.42;44.76;95916.69;5044718;28;19973;-72
2022/07/04 03:03:06;;;;;;;;;;;;;;;11.38;45.36;95929.53;5043669;28;20446;-72
2022/07/04 03:05:32;;;;;;;;;;;;;;;11.41;44.90;95927.53;5043863;28;19964;-71
2022/07/04 03:07:57;;;;;;;;;;;;;;;11.41;44.89;95925.69;5043255;28;20079;-72
2022/07/04 03:10:22;;;;;;;;;;;;;;;11.39;45.21;95928.53;5043284;28;20189;-71
2022/07/04 03:12:48;;;;;;;;;;;;;;;11.42;45.01;95927.34;5043238;28;20341;-71
2022/07/04 03:15:13;;;;;;;;;;;;;;;11.43;44.95;95933.53;5042609;28;19996;-72
2022/07/04 03:17:38;;;;;;;;;;;;;;;11.39;45.51;95933.88;5043524;28;19969;-70
2022/07/04 03:20:04;;;;;;;;;;;;;;;11.41;44.90;95920.38;5042698;28;20007;-72
2022/07/04 03:22:29;;;;;;;;;;;;;;;11.39;45.22;95925.03;5042614;28;20015;-72
2022/07/04 03:24:54;;;;;;;;;;;;;;;11.37;44.60;95927.06;5043026;28;20008;-72
2022/07/04 03:27:19;;;;;;;;;;;;;;;11.35;44.25;95924.56;5042895;28;20043;-72
2022/07/04 03:29:45;;;;;;;;;;;;;;;11.35;44.36;95921.06;5042764;28;20438;-72
2022/07/04 03:32:10;;;;;;;;;;;;;;;11.34;44.42;95914.06;5042807;28;20928;-74
2022/07/04 03:34:35;;;;;;;;;;;;;;;11.30;43.83;95916.28;5042956;28;20032;-73
2022/07/04 03:37:00;;;;;;;;;;;;;;;11.32;43.92;95919.56;5043423;28;19981;-72
2022/07/04 03:39:26;;;;;;;;;;;;;;;11.26;45.67;95921.09;5042912;28;20005;-73
2022/07/04 03:41:51;;;;;;;;;;;;;;;11.29;44.64;95917.25;5043870;28;19974;-73
2022/07/04 03:44:16;;;;;;;;;;;;;;;11.35;44.48;95916.56;5042469;28;20091;-71
2022/07/04 03:46:41;;;;;;;;;;;;;;;11.33;44.80;95931.06;5042916;28;20047;-70
2022/07/04 03:49:07;;;;;;;;;;;;;;;11.24;44.92;95930.28;5042798;28;20050;-72
2022/07/04 03:51:32;;;;;;;;;;;;;;;11.24;44.68;95933.78;5042441;28;19993;-72
2022/07/04 03:53:57;;;;;;;;;;;;;;;11.34;44.49;95940.72;5042270;28;20008;-72
2022/07/04 03:56:22;;;;;;;;;;;;;;;11.34;44.68;95936.22;5042969;28;20488;-69
2022/07/04 03:58:50;;;;;;;;;;;;;;;11.33;44.06;95939.91;5042236;28;20412;-72
2022/07/04 04:01:16;;;;;;;;;;;;;;;11.36;43.75;95939.53;5040635;28;19969;-72
2022/07/04 04:06:25;;;;;;;;;;;;;;;11.51;44.47;95946.78;5041702;28;20019;-73
2022/07/04 04:08:50;;;;;;;;;;;;;;;11.43;44.38;95950.34;5042904;28;20404;-69
2022/07/04 04:11:15;;;;;;;;;;;;;;;11.23;45.42;95958.78;5042153;28;20192;-66
2022/07/04 04:13:41;;;;;;;;;;;;;;;11.15;46.27;95952.66;5042583;28;20064;-68
2022/07/04 04:16:06;;;;;;;;;;;;;;;11.33;46.11;95958.56;5041967;28;20007;-69
2022/07/04 04:18:31;;;;;;;;;;;;;;;11.58;45.43;95958.44;5042157;28;19999;-68
2022/07/04 04:20:56;;;;;;;;;;;;;;;11.72;45.30;95954.16;5042208;28;20394;-68
2022/07/04 04:23:22;;;;;;;;;;;;;;;11.78;45.31;95957.97;5041102;28;20000;-70
2022/07/04 04:25:47;;;;;;;;;;;;;;;11.69;45.62;95954.50;5042168;28;20031;-71
2022/07/04 04:28:12;;;;;;;;;;;;;;;11.75;45.40;95958.31;5042109;28;20001;-68
2022/07/04 04:30:37;;;;;;;;;;;;;;;11.43;46.14;95954.84;5041146;28;20429;-69
2022/07/04 04:33:03;;;;;;;;;;;;;;;11.24;47.00;95959.59;5042103;28;20263;-72
2022/07/04 04:35:28;;;;;;;;;;;;;;;11.19;47.49;95962.78;5040675;28;19988;-71
2022/07/04 04:37:53;;;;;;;;;;;;;;;11.10;47.91;95958.50;5042034;28;20026;-71
2022/07/04 04:40:18;;;;;;;;;;;;;;;10.92;48.50;95964.88;5042019;28;19997;-70
2022/07/04 04:42:44;;;;;;;;;;;;;;;10.94;48.84;95964.66;5042047;28;19997;-70
2022/07/04 04:45:09;;;;;;;;;;;;;;;10.90;48.82;95969.53;5041761;28;19973;-70
2022/07/04 04:47:34;;;;;;;;;;;;;;;10.91;49.34;95968.50;5042004;28;20447;-68
2022/07/04 04:50:00;;;;;;;;;;;;;;;10.94;49.33;95970.84;5041902;28;19999;-68
2022/07/04 04:52:25;;;;;;;;;;;;;;;11.02;49.32;95969.16;5042075;28;20464;-71
2022/07/04 04:54:50;;;;;;;;;;;;;;;11.18;49.12;95968.31;5040456;28;20393;-68
2022/07/04 04:57:16;;;;;;;;;;;;;;;11.05;49.54;95966.16;5042125;28;19976;-70
2022/07/04 04:59:41;;;;;;;;;;;;;;;11.27;49.26;95972.59;5041890;28;19997;-72
2022/07/04 05:02:06;;;;;;;;;;;;;;;11.32;49.33;95970.22;5041346;28;20084;-72
2022/07/04 05:04:31;;;;;;;;;;;;;;;11.24;49.70;95973.75;5041163;28;19992;-70
2022/07/04 05:06:57;;;;;;;;;;;;;;;10.97;50.37;95978.50;5041716;28;19997;-71
2022/07/04 05:09:22;;;;;;;;;;;;;;;10.87;50.05;95970.69;5041855;28;19991;-69
2022/07/04 05:11:47;;;;;;;;;;;;;;;11.05;49.64;95977.63;5041385;28;19996;-70
2022/07/04 05:14:13;;;;;;;;;;;;;;;11.06;49.64;95975.81;5042735;28;19977;-71
2022/07/04 05:16:38;;;;;;;;;;;;;;;11.33;48.97;95971.06;5043534;28;19982;-72
2022/07/04 05:19:03;;;;;;;;;;;;;;;11.31;48.91;95967.72;5042629;28;20512;-71
2022/07/04 05:21:29;;;;;;;;;;;;;;;11.74;47.80;95970.84;5045693;28;19997;-72
2022/07/04 05:23:54;;;;;;;;;;;;;;;12.09;46.76;95974.94;5043880;28;20050;-73
2022/07/04 05:26:19;;;;;;;;;;;;;;;12.23;46.27;95978.66;5044610;28;19993;-70
2022/07/04 05:28:45;;;;;;;;;;;;;;;12.19;46.09;95980.03;5045299;28;19993;-73
2022/07/04 05:31:10;;;;;;;;;;;;;;;12.09;46.24;95980.28;5044135;28;20377;-73
2022/07/04 05:33:35;;;;;;;;;;;;;;;12.50;45.25;95977.25;5060573;28;20008;-72
2022/07/04 05:36:00;;;;;;;;;;;;;;;12.73;43.77;95989.75;5044500;28;20204;-71
2022/07/04 05:38:26;;;;;;;;;;;;;;;11.96;46.78;95987.00;5044841;28;19997;-72
2022/07/04 05:40:51;;;;;;;;;;;;;;;12.24;45.40;95991.03;5045011;28;19970;-72
2022/07/04 05:43:16;;;;;;;;;;;;;;;12.60;44.46;95990.34;5044400;28;19997;-71
2022/07/04 05:45:42;;;;;;;;;;;;;;;12.59;44.09;95996.72;5045244;28;20026;-71
2022/07/04 05:48:07;;;;;;;;;;;;;;;12.69;44.20;95998.28;5044390;28;20042;-71
2022/07/04 05:50:32;;;;;;;;;;;;;;;12.50;45.52;95997.78;5044690;28;20070;-74
2022/07/04 05:52:57;;;;;;;;;;;;;;;12.61;44.27;96001.88;5045300;28;20030;-70
2022/07/04 05:55:23;;;;;;;;;;;;;;;12.71;44.11;95998.94;5043377;28;20031;-73
2022/07/04 05:57:48;;;;;;;;;;;;;;;12.30;45.92;96008.97;5045287;28;19984;-72
2022/07/04 06:00:13;;;;;;;;;;;;;;;12.88;43.66;96008.44;5044067;28;20526;-72
2022/07/04 06:02:39;;;;;;;;;;;;;;;13.42;43.02;96001.19;5044103;28;20004;-72
2022/07/04 06:05:04;;;;;;;;;;;;;;;13.67;41.65;96002.69;5043934;28;19969;-73
2022/07/04 06:07:30;;;;;;;;;;;;;;;13.76;41.33;95990.84;5044892;28;20044;-72
2022/07/04 06:09:55;;;;;;;;;;;;;;;12.79;43.35;95999.66;5043854;28;20175;-71
2022/07/04 06:12:20;;;;;;;;;;;;;;;13.01;43.27;95996.31;5043255;28;19985;-72
2022/07/04 06:14:45;;;;;;;;;;;;;;;12.61;44.95;95997.34;5036934;28;20346;-70
2022/07/04 06:17:11;;;;;;;;;;;;;;;13.22;42.64;96000.91;5036949;28;20172;-71
2022/07/04 06:19:36;;;;;;;;;;;;;;;13.39;43.10;95990.84;5039722;28;20022;-74
2022/07/04 06:22:02;;;;;;;;;;;;;;;13.79;42.65;95985.13;5038337;28;20024;-74
2022/07/04 06:24:27;;;;;;;;;;;;;;;13.36;41.97;95990.41;5039936;28;19973;-72
2022/07/04 06:26:53;;;;;;;;;;;;;;;13.56;43.10;95982.59;5037929;28;20706;-80
2022/07/04 06:29:19;;;;;;;;;;;;;;;14.17;39.77;95985.94;5040852;28;19974;-80
2022/07/04 06:31:44;;;;;;;;;;;;;;;13.92;41.67;95987.16;5039004;28;20011;-81
2022/07/04 06:36:53;;;;;;;;;;;;;;;13.80;41.52;95986.78;5040278;28;19976;-80
2022/07/04 06:39:18;;;;;;;;;;;;;;;13.56;41.51;95991.47;5036986;28;19997;-70
2022/07/04 06:41:43;;;;;;;;;;;;;;;13.96;39.83;95992.94;5039225;28;20124;-70
2022/07/04 06:44:09;;;;;;;;;;;;;;;14.07;40.59;95995.13;5037360;28;20025;-70
2022/07/04 06:46:34;;;;;;;;;;;;;;;14.08;40.05;95998.63;5036459;28;20029;-70
2022/07/04 06:48:59;;;;;;;;;;;;;;;14.34;40.57;96006.06;5037056;28;19976;-70
2022/07/04 06:51:24;;;;;;;;;;;;;;;14.34;39.55;96008.75;5039155;28;19997;-70
2022/07/04 06:53:51;;;;;;;;;;;;;;;14.25;39.70;96003.72;5035092;28;21505;-71
2022/07/04 06:56:17;;;;;;;;;;;;;;;14.62;38.98;96015.16;5039176;28;20093;-70
2022/07/04 06:58:42;;;;;;;;;;;;;;;14.39;38.88;96010.88;5036171;28;19993;-70
2022/07/04 07:01:07;;;;;;;;;;;;;;;13.91;40.17;96014.91;5038906;28;20020;-70
2022/07/04 07:03:33;;;;;;;;;;;;;;;14.25;39.92;96006.41;5038653;28;20485;-70
2022/07/04 07:05:58;;;;;;;;;;;;;;;13.66;39.25;96017.06;5039342;28;19973;-70
2022/07/04 07:08:23;;;;;;;;;;;;;;;13.47;38.86;96015.84;5039042;28;20274;-70
2022/07/04 07:10:48;;;;;;;;;;;;;;;13.42;38.39;96006.53;5036964;28;20462;-70
2022/07/04 07:13:14;;;;;;;;;;;;;;;13.68;39.10;95999.00;5037222;28;19973;-70
2022/07/04 07:15:39;;;;;;;;;;;;;;;13.90;40.28;96007.91;5037424;28;20000;-70
2022/07/04 07:18:04;;;;;;;;;;;;;;;14.18;39.92;96004.47;5037956;28;20012;-70
2022/07/04 07:20:30;;;;;;;;;;;;;;;14.21;37.85;96003.25;5036760;28;19969;-70
2022/07/04 07:22:55;;;;;;;;;;;;;;;14.34;37.44;96002.56;5032139;28;20462;-71
2022/07/04 07:25:20;;;;;;;;;;;;;;;14.87;38.28;96000.50;5036989;28;20592;-70
2022/07/04 07:27:45;;;;;;;;;;;;;;;15.24;37.19;95996.59;5036798;28;20319;-70
2022/07/04 07:30:11;;;;;;;;;;;;;;;15.16;36.79;95985.22;5035026;28;20008;-70
2022/07/04 07:32:36;;;;;;;;;;;;;;;15.09;36.73;95987.84;5035454;28;20468;-70
2022/07/04 07:35:01;;;;;;;;;;;;;;;15.24;36.29;95993.13;5036557;28;20032;-70
2022/07/04 07:37:26;;;;;;;;;;;;;;;15.01;36.11;95988.03;5037353;28;20054;-70
2022/07/04 07:39:52;;;;;;;;;;;;;;;15.74;34.59;95987.53;5037628;28;20453;-70
2022/07/04 07:42:17;;;;;;;;;;;;;;;14.98;36.58;95986.56;5036213;28;20448;-70
2022/07/04 07:44:45;;;;;;;;;;;;;;;14.95;36.76;95987.78;5038155;28;20262;-70
2022/07/04 07:47:11;;;;;;;;;;;;;;;15.58;37.20;95996.81;5035206;28;20481;-70
2022/07/04 07:49:36;;;;;;;;;;;;;;;15.92;35.92;95983.47;5037901;28;19973;-70
2022/07/04 07:52:02;;;;;;;;;;;;;;;16.17;33.82;95985.56;5037543;28;20469;-70
2022/07/04 07:54:27;;;;;;;;;;;;;;;16.28;33.21;95989.50;5035618;28;19993;-70
2022/07/04 07:56:52;;;;;;;;;;;;;;;15.95;34.07;95988.41;5036209;28;20030;-63
2022/07/04 07:59:17;;;;;;;;;;;;;;;16.16;32.84;95996.50;5037890;28;21838;-65
2022/07/04 08:01:43;;;;;;;;;;;;;;;16.63;32.89;95983.13;5037830;28;20027;-66
2022/07/04 08:06:52;;;;;;;;;;;;;;;16.71;32.47;95982.91;5036688;28;20042;-66
2022/07/04 08:09:17;;;;;;;;;;;;;;;16.54;32.59;95993.25;5036963;28;19968;-67
2022/07/04 08:11:42;;;;;;;;;;;;;;;16.93;31.74;95990.72;5036935;28;20033;-66
2022/07/04 08:14:08;;;;;;;;;;;;;;;17.06;30.26;95986.38;5037083;28;20064;-67
2022/07/04 08:16:33;;;;;;;;;;;;;;;17.55;29.60;95978.78;5037917;28;20019;-67
2022/07/04 08:18:59;;;;;;;;;;;;;;;17.30;30.55;95984.06;5036711;28;20032;-68
2022/07/04 08:21:24;;;;;;;;;;;;;;;16.65;29.62;95983.75;5036184;28;19989;-66
2022/07/04 08:23:49;;;;;;;;;;;;;;;17.09;29.11;95977.88;5037659;28;20071;-67
2022/07/04 08:26:14;;;;;;;;;;;;;;;17.43;28.46;95975.94;5037488;28;20247;-66
2022/07/04 08:28:39;;;;;;;;;;;;;;;17.38;27.35;95976.56;5034856;28;20035;-67
2022/07/04 08:31:05;;;;;;;;;;;;;;;17.42;27.34;95976.97;5037008;28;20043;-67
2022/07/04 08:33:30;;;;;;;;;;;;;;;17.83;26.73;95977.63;5037734;28;19980;-68
2022/07/04 08:35:56;;;;;;;;;;;;;;;17.57;27.38;95976.69;5037130;28;20020;-67
2022/07/04 08:38:22;;;;;;;;;;;;;;;17.76;26.98;95977.66;5036891;28;20355;-68
2022/07/04 08:40:48;;;;;;;;;;;;;;;17.88;27.84;95974.31;5037507;28;19984;-67
2022/07/04 08:43:14;;;;;;;;;;;;;;;17.69;28.13;95979.56;5035675;28;20574;-67
2022/07/04 08:45:39;;;;;;;;;;;;;;;17.82;29.26;95975.13;5037676;28;19967;-67
2022/07/04 08:48:06;;;;;;;;;;;;;;;17.72;28.95;95975.59;5037330;28;19997;-67
2022/07/04 08:50:38;;;;;;;;;;;;;;;17.75;27.44;95973.28;5037334;28;20395;-66
2022/07/04 08:53:08;;;;;;;;;;;;;;;18.36;29.10;95966.72;5033432;28;19969;-67
2022/07/04 08:58:29;;;;;;;;;;;;;;;18.35;26.34;95978.56;5040601;28;20104;-69
2022/07/04 09:00:54;;;;;;;;;;;;;;;17.77;28.66;95979.31;5038845;28;20488;-69
2022/07/04 09:03:20;;;;;;;;;;;;;;;17.86;29.53;95982.59;5040905;28;19995;-67
2022/07/04 09:05:45;;;;;;;;;;;;;;;18.46;26.39;95980.50;5040637;28;20067;-67
2022/07/04 09:08:10;;;;;;;;;;;;;;;17.86;28.47;95976.38;5041095;28;20001;-66
2022/07/04 09:10:35;;;;;;;;;;;;;;;18.03;27.01;95976.69;5040674;28;20002;-67
2022/07/04 09:13:04;;;;;;;;;;;;;;;18.18;27.41;95979.06;5040521;28;19969;-66
2022/07/04 09:15:29;;;;;;;;;;;;;;;18.77;26.91;95978.81;5038391;28;19992;-67
2022/07/04 09:17:55;;;;;;;;;;;;;;;18.60;28.20;95980.44;5039653;28;19971;-68
2022/07/04 09:20:21;;;;;;;;;;;;;;;18.87;27.13;95980.22;5040165;28;20325;-68
2022/07/04 09:22:46;;;;;;;;;;;;;;;19.20;27.53;95981.72;5040213;28;20213;-67
2022/07/04 09:25:14;;;;;;;;;;;;;;;19.06;26.06;95984.56;5040434;28;19964;-67
2022/07/04 09:27:39;;;;;;;;;;;;;;;18.79;26.68;95982.13;5036058;28;20052;-67
2022/07/04 09:30:05;;;;;;;;;;;;;;;19.17;26.75;95977.59;5039754;28;19966;-68
2022/07/04 09:32:37;;;;;;;;;;;;;;;19.48;25.47;95983.13;5042874;28;19964;-67
2022/07/04 09:35:06;;;;;;;;;;;;;;;18.75;24.77;95978.25;5040494;28;19985;-67
2022/07/04 09:37:54;;;;;;;;;;;;;;;19.23;25.65;95978.56;5040531;28;20521;-68
2022/07/04 09:40:32;;;;;;;;;;;;;;;19.20;26.03;95979.84;5041531;28;20086;-68
2022/07/04 09:42:58;;;;;;;;;;;;;;;19.32;25.54;95966.47;5043286;28;20102;-67
2022/07/04 09:45:24;;;;;;;;;;;;;;;19.24;27.70;95971.31;5042016;28;20349;-68
2022/07/04 09:47:50;;;;;;;;;;;;;;;19.42;26.05;95970.50;5040132;28;19999;-68
2022/07/04 09:50:21;;;;;;;;;;;;;;;19.30;26.18;95968.56;5043080;28;20007;-66
2022/07/04 09:52:47;;;;;;;;;;;;;;;19.17;24.40;95963.31;5043149;28;19962;-66
2022/07/04 09:55:12;;;;;;;;;;;;;;;19.20;25.25;95970.91;5043601;28;20379;-63
2022/07/04 09:57:37;;;;;;;;;;;;;;;19.14;25.49;95971.84;5041668;28;19966;-65
2022/07/04 10:00:21;;;;;;;;;;;;;;;19.31;25.79;95969.41;5042894;28;20031;-66
2022/07/04 10:02:47;;;;;;;;;;;;;;;19.23;26.35;95965.09;5043295;28;20492;-66
2022/07/04 10:05:13;;;;;;;;;;;;;;;19.51;26.00;95969.13;5043655;28;20132;-67
2022/07/04 10:07:47;;;;;;;;;;;;;;;19.71;26.93;95957.25;5040476;28;20533;-64
2022/07/04 10:10:25;;;;;;;;;;;;;;;20.38;26.26;95962.75;5041726;28;19970;-66
2022/07/04 10:12:51;;;;;;;;;;;;;;;20.04;26.25;95971.38;5043132;28;20064;-66
2022/07/04 10:15:17;;;;;;;;;;;;;;;19.76;25.73;95975.47;5040758;28;20088;-67
2022/07/04 10:17:42;;;;;;;;;;;;;;;19.73;26.00;95960.56;5042604;28;19977;-66
2022/07/04 10:20:08;;;;;;;;;;;;;;;19.43;25.35;95972.97;5043153;28;19986;-66
2022/07/04 10:22:34;;;;;;;;;;;;;;;18.94;25.16;95972.88;5040697;28;20082;-67
2022/07/04 10:24:59;;;;;;;;;;;;;;;19.08;26.05;95970.88;5042449;28;20073;-67
2022/07/04 10:27:24;;;;;;;;;;;;;;;18.69;27.00;95962.94;5040379;28;20047;-67
2022/07/04 10:29:49;;;;;;;;;;;;;;;18.39;27.53;95963.59;5042642;28;20013;-67
2022/07/04 10:32:14;;;;;;;;;;;;;;;18.73;28.01;95957.94;5042849;28;20026;-67
2022/07/04 10:34:40;;;;;;;;;;;;;;;19.29;26.71;95953.44;5038103;28;20380;-68
2022/07/04 10:37:05;;;;;;;;;;;;;;;19.55;26.32;95956.81;5041470;28;19981;-68
2022/07/04 10:39:31;;;;;;;;;;;;;;;20.01;25.89;95942.94;5041924;28;20468;-67
2022/07/04 10:41:57;;;;;;;;;;;;;;;19.99;25.40;95945.06;5041994;28;20498;-68
2022/07/04 10:44:25;;;;;;;;;;;;;;;18.93;26.32;95950.47;5042203;28;20456;-67
2022/07/04 10:46:50;;;;;;;;;;;;;;;18.93;27.43;95938.84;5041963;28;19992;-67
2022/07/04 10:49:16;;;;;;;;;;;;;;;18.60;26.90;95951.63;5042433;28;19973;-68
2022/07/04 10:51:45;;;;;;;;;;;;;;;18.90;27.16;95942.81;5041628;28;20318;-67
2022/07/04 10:54:15;;;;;;;;;;;;;;;18.55;28.77;95949.56;5041888;28;20451;-67
2022/07/04 10:56:41;;;;;;;;;;;;;;;19.01;27.45;95949.34;5039274;28;19975;-68
2022/07/04 10:59:08;;;;;;;;;;;;;;;19.07;27.85;95943.03;5042587;28;20080;-67
2022/07/04 11:01:33;;;;;;;;;;;;;;;18.99;28.96;95946.03;5042656;28;20390;-67
2022/07/04 11:03:58;;;;;;;;;;;;;;;19.38;27.15;95953.13;5040037;28;19994;-68
2022/07/04 11:06:33;;;;;;;;;;;;;;;19.34;26.93;95944.63;5039720;28;20596;-68
2022/07/04 11:09:17;;;;;;;;;;;;;;;19.08;27.19;95943.88;5041722;28;20089;-68
2022/07/04 11:11:49;;;;;;;;;;;;;;;20.33;25.73;95939.94;5041253;28;19990;-68
2022/07/04 11:14:33;;;;;;;;;;;;;;;20.73;26.44;95949.28;5040355;28;19966;-68
2022/07/04 11:16:58;;;;;;;;;;;;;;;20.61;26.28;95949.25;5042396;28;20052;-67
2022/07/04 11:19:24;;;;;;;;;;;;;;;20.64;26.28;95952.59;5039250;28;20084;-67
2022/07/04 11:21:49;;;;;;;;;;;;;;;21.47;24.87;95936.25;5041565;28;20028;-68
2022/07/04 11:24:14;;;;;;;;;;;;;;;20.93;24.36;95944.56;5057096;28;20241;-67
2022/07/04 11:26:39;;;;;;;;;;;;;;;21.12;24.30;95945.25;5040695;28;20066;-67
2022/07/04 11:29:05;;;;;;;;;;;;;;;21.29;24.17;95942.66;5040669;28;20310;-67
2022/07/04 11:31:39;;;;;;;;;;;;;;;21.58;22.86;95936.47;5040895;28;20021;-69
2022/07/04 11:34:05;;;;;;;;;;;;;;;21.47;24.91;95938.97;5041597;28;20021;-68
2022/07/04 11:36:30;;;;;;;;;;;;;;;21.50;23.54;95951.19;5040499;28;20048;-68
2022/07/04 11:38:58;;;;;;;;;;;;;;;21.53;23.22;95948.00;5038336;28;20001;-67
2022/07/04 11:47:14;;;;;;;;;;;;;;;23.07;21.95;95936.44;5035006;28;20034;-67
2022/07/04 11:49:46;;;;;;;;;;;;;;;22.63;22.05;95929.88;5041235;28;20391;-67
2022/07/04 11:52:11;;;;;;;;;;;;;;;23.13;21.40;95934.63;5032903;28;20272;-67
2022/07/04 11:54:38;;;;;;;;;;;;;;;21.90;24.01;95946.78;5034784;28;20021;-67
2022/07/04 11:57:13;;;;;;;;;;;;;;;21.45;23.15;95956.50;5036600;28;19977;-67
2022/07/04 11:59:38;;;;;;;;;;;;;;;20.96;23.70;95952.22;5034509;28;20358;-67
2022/07/04 12:02:11;;;;;;;;;;;;;;;21.15;22.74;95941.25;5037860;28;20001;-66
2022/07/04 12:04:38;;;;;;;;;;;;;;;21.68;22.39;95943.97;5037579;28;19967;-67
2022/07/04 12:07:07;;;;;;;;;;;;;;;21.53;21.46;95942.59;5037391;28;20074;-68
2022/07/04 12:09:33;;;;;;;;;;;;;;;21.57;23.53;95943.75;5038472;28;19969;-67
2022/07/04 12:11:58;;;;;;;;;;;;;;;22.11;22.43;95948.00;5037851;28;20413;-68
2022/07/04 12:14:24;;;;;;;;;;;;;;;22.19;21.39;95935.94;5037590;28;20019;-68
2022/07/04 12:16:49;;;;;;;;;;;;;;;22.36;22.03;95943.25;5036387;28;19955;-68
2022/07/04 12:19:14;;;;;;;;;;;;;;;20.80;22.89;95949.16;5037515;28;20464;-67
2022/07/04 12:21:41;;;;;;;;;;;;;;;21.62;23.12;95940.31;5037543;28;20041;-67
2022/07/04 12:24:07;;;;;;;;;;;;;;;21.69;22.28;95935.56;5036491;28;19989;-70
2022/07/04 12:26:32;;;;;;;;;;;;;;;21.95;23.19;95933.34;5040639;28;19995;-67
2022/07/04 12:28:57;;;;;;;;;;;;;;;22.91;23.41;95932.72;5037702;28;20056;-67
2022/07/04 12:31:41;;;;;;;;;;;;;;;22.89;21.30;95930.25;5035643;28;20366;-68
2022/07/04 12:34:15;;;;;;;;;;;;;;;22.79;21.58;95930.09;5037494;28;20517;-67
2022/07/04 12:36:50;;;;;;;;;;;;;;;22.87;21.86;95937.81;5037837;28;20090;-67
2022/07/04 12:39:27;;;;;;;;;;;;;;;23.10;21.19;95924.25;5032705;28;20359;-68
2022/07/04 12:42:03;;;;;;;;;;;;;;;23.27;22.31;95929.66;5034287;28;19950;-68
2022/07/04 12:44:28;;;;;;;;;;;;;;;22.90;21.93;95931.88;5037380;28;19985;-68
2022/07/04 12:46:55;;;;;;;;;;;;;;;22.86;20.88;95932.63;5035569;28;19980;-67
2022/07/04 12:49:21;;;;;;;;;;;;;;;23.41;20.56;95922.78;5036253;28;19960;-68
2022/07/04 12:51:46;;;;;;;;;;;;;;;23.25;21.71;95929.09;5037533;28;19978;-67
2022/07/04 12:54:11;;;;;;;;;;;;;;;22.77;21.94;95924.91;5035585;28;19955;-72
2022/07/04 12:56:41;;;;;;;;;;;;;;;22.76;20.47;95919.72;5036135;28;20115;-68
2022/07/04 12:59:07;;;;;;;;;;;;;;;23.59;22.36;95919.97;5037200;28;20285;-68
2022/07/04 13:01:33;;;;;;;;;;;;;;;23.27;22.81;95927.78;5037866;28;20487;-68
2022/07/04 13:03:58;;;;;;;;;;;;;;;23.34;22.83;95932.19;5037373;28;20445;-68